Lexington, KY

4:07 AM EST on January 26, 2015 (GMT -0500)
Blue Grass | Change Station
CLOSE
Current Station
Airport
Location: Lexington,
Elevation: 988 ft
Nearby Weather Stations
Active Advisory: Special Statement

Elev 988 ft 38.04 °N, 84.61 °W | Updated 13 minutes ago

Fog
Fog
29 °F
Feels Like 17 °F
N
17
Wind Variable Wind from NW
Gusts 24 mph

Today
High -- | Low -- °F
--% Chance of Precip.
Yesterday
High -- | Low -- °F
Precip. -- in
7:47 AM 5:54 PM
Waxing Crescent, 41% visible
Pressure 29.73 in
Visibility 4.0 miles
Clouds Overcast 300 ft
Windchill 17 °F
Dew Point 29 °F
Humidity 100%
Rainfall 0.00 in
Snow Depth Not available.
UV 0 out of 12
Pollen .10 out of 12
Air Quality Not available.
Flu Activity Not available.
METAR KLEX 260854Z 32015G21KT 4SM BR OVC003 M02/M02 A2972 RMK AO2 SLP068 60000 I1001 I3001 T10171017 51019

More Conditions Fewer Conditions

Pressure 29.73 in
Visibility 4.0 miles
Clouds Overcast 300 ft
Windchill 17 °F
Dew Point 29 °F
Humidity 100%
Rainfall 0.00 in
Snow Depth Not available.
UV 0 out of 12
Pollen .10 out of 12
Air Quality Not available.
Flu Activity Not available.
METAR KLEX 260854Z 32015G21KT 4SM BR OVC003 M02/M02 A2972 RMK AO2 SLP068 60000 I1001 I3001 T10171017 51019

More Conditions Fewer Conditions

10-Day Weather Forecast

Almanac

Astronomy

Jan. 26, 2015 Rise Set
Actual Time
Civil Twilight
Nautical Twilight
Astronomical Twilight
Moon
Length of Visible Light
Length of Day
Tomorrow will be .
, % of the Moon is Illuminated

Today's Extremes

State Highs State Lows

Community

WunderPhotos

Upload Photos

1,790,163 photos uploaded!

WunderBlogs® & News

Nearby

Air Quality

  Air Quality AQ Index Pollutant
Not available.

Snow Depth

Station Depth Elevation

Earthquake Activity

City Distance Mag. Time & Date
Minimum magnitude displayed is 2.5.

Coastal Water Temperatures

Place Temperature

Nearby Weather Stations